Time;durP1;ratioP1;P1;durP2;ratioP2;P2;SDS_P1;SDS_P2;PMS_P1;PMS_P2;Temp;Humidity;BMP_temperature;BMP_pressure;BME280_temperature;BME280_humidity;BME280_pressure;Samples;Min_cycle;Max_cycle;Signal;HPM_P1;HPM_P2
2022/12/25 04:36:08;;;;;;;0.55;0.40;;;13.40;52.40;;;;;;4894468;28;45246;-56
2022/12/25 04:38:34;;;;;;;0.65;0.40;;;13.40;52.50;;;;;;4898352;28;45214;-58
2022/12/25 04:41:00;;;;;;;0.30;0.20;;;13.40;52.50;;;;;;4894165;28;44954;-59
2022/12/25 04:43:25;;;;;;;0.20;0.20;;;13.40;52.40;;;;;;4895968;28;46151;-57
2022/12/25 04:45:52;;;;;;;0.40;0.30;;;13.40;52.40;;;;;;4896500;28;45552;-60
2022/12/25 04:48:18;;;;;;;0.50;0.40;;;13.40;52.40;;;;;;4891595;28;44743;-62
2022/12/25 04:50:43;;;;;;;0.68;0.40;;;13.40;52.40;;;;;;4893723;28;45894;-56
2022/12/25 04:53:09;;;;;;;0.38;0.35;;;13.40;52.40;;;;;;4891917;28;45958;-58
2022/12/25 04:55:35;;;;;;;0.30;0.20;;;13.40;52.50;;;;;;4898892;28;45162;-54
2022/12/25 04:58:00;;;;;;;0.43;0.38;;;13.40;52.40;;;;;;4894108;28;45025;-57
2022/12/25 05:00:26;;;;;;;0.82;0.40;;;13.40;52.40;;;;;;4891998;28;46040;-56
2022/12/25 05:02:51;;;;;;;0.50;0.40;;;13.40;52.40;;;;;;4886550;28;46350;-59
2022/12/25 05:05:17;;;;;;;2.15;0.30;;;13.40;52.40;;;;;;4890521;28;45602;-59
2022/12/25 05:07:42;;;;;;;0.60;0.40;;;13.40;52.50;;;;;;4893208;28;45371;-57
2022/12/25 05:10:08;;;;;;;0.57;0.50;;;13.40;52.40;;;;;;4893130;28;45546;-58
2022/12/25 05:12:33;;;;;;;0.40;0.40;;;13.40;52.50;;;;;;4890695;28;47058;-55
2022/12/25 05:14:59;;;;;;;0.22;0.20;;;13.40;52.40;;;;;;4893562;28;45460;-60
2022/12/25 05:17:24;;;;;;;0.77;0.38;;;13.40;52.40;;;;;;4898745;28;45078;-57
2022/12/25 05:19:50;;;;;;;0.20;0.20;;;13.40;52.40;;;;;;4900273;28;45280;-56
2022/12/25 05:22:15;;;;;;;0.45;0.35;;;13.40;52.50;;;;;;4896844;28;46090;-61
2022/12/25 05:24:41;;;;;;;0.32;0.32;;;13.40;52.40;;;;;;4895236;28;45305;-51
2022/12/25 05:27:06;;;;;;;0.38;0.30;;;13.40;52.50;;;;;;4894854;28;45522;-72
2022/12/25 05:29:32;;;;;;;0.40;0.40;;;13.40;52.40;;;;;;4894858;28;44806;-63
2022/12/25 05:31:58;;;;;;;0.40;0.40;;;13.40;52.50;;;;;;4895102;28;46905;-53
2022/12/25 05:34:23;;;;;;;0.63;0.43;;;13.40;52.40;;;;;;4898158;28;45443;-71
2022/12/25 05:36:49;;;;;;;0.50;0.35;;;13.40;52.40;;;;;;4896621;28;45093;-55
2022/12/25 05:39:14;;;;;;;0.40;0.40;;;13.40;52.50;;;;;;4896937;28;44917;-66
2022/12/25 05:41:40;;;;;;;0.38;0.38;;;13.40;52.50;;;;;;4878100;29;46044;-57
2022/12/25 05:44:06;;;;;;;0.50;0.28;;;13.40;52.40;;;;;;4887495;28;45406;-59
2022/12/25 05:46:31;;;;;;;0.65;0.30;;;13.40;52.50;;;;;;4899746;28;45452;-56
2022/12/25 05:48:57;;;;;;;0.32;0.30;;;13.40;52.50;;;;;;4896668;28;45436;-57
2022/12/25 05:51:22;;;;;;;0.20;0.20;;;13.40;52.50;;;;;;4893763;28;46247;-55
2022/12/25 05:53:48;;;;;;;0.32;0.30;;;13.40;52.50;;;;;;4893929;28;45451;-62
2022/12/25 05:56:13;;;;;;;0.90;0.30;;;13.40;52.40;;;;;;4897070;28;45588;-58
2022/12/25 05:58:39;;;;;;;0.55;0.40;;;13.40;52.40;;;;;;4893298;28;45555;-57
2022/12/25 06:01:16;;;;;;;0.30;0.30;;;13.40;52.40;;;;;;4901732;28;48092;-55
2022/12/25 06:03:41;;;;;;;0.30;0.30;;;13.40;52.50;;;;;;4894197;28;45473;-61
2022/12/25 06:06:07;;;;;;;0.60;0.50;;;13.40;52.40;;;;;;4888506;28;45098;-54
2022/12/25 06:08:33;;;;;;;0.68;0.40;;;13.40;52.40;;;;;;4896481;28;45260;-62
2022/12/25 06:11:01;;;;;;;0.45;0.30;;;13.40;52.50;;;;;;4886916;28;47007;-60
2022/12/25 06:13:26;;;;;;;0.20;0.20;;;13.40;52.40;;;;;;4891097;28;44699;-58
2022/12/25 06:15:52;;;;;;;0.40;0.30;;;13.50;52.50;;;;;;4895887;28;44638;-54
2022/12/25 06:18:17;;;;;;;0.30;0.20;;;13.40;52.50;;;;;;4893634;28;45120;-55
2022/12/25 06:20:43;;;;;;;0.30;0.30;;;13.40;52.50;;;;;;4892916;28;46383;-53
2022/12/25 06:23:08;;;;;;;0.43;0.35;;;13.40;52.50;;;;;;4895999;28;45319;-72
2022/12/25 06:25:37;;;;;;;0.20;0.20;;;13.40;52.50;;;;;;4892159;28;45349;-59
2022/12/25 06:28:03;;;;;;;0.68;0.32;;;13.40;52.50;;;;;;4896931;28;45454;-56
2022/12/25 06:30:28;;;;;;;0.43;0.30;;;13.40;52.50;;;;;;4894825;28;45033;-59
2022/12/25 06:32:54;;;;;;;0.40;0.30;;;13.40;52.50;;;;;;4893791;28;45094;-56
2022/12/25 06:35:19;;;;;;;0.65;0.30;;;13.40;52.50;;;;;;4894158;28;45240;-62
2022/12/25 06:37:45;;;;;;;0.73;0.30;;;13.40;52.50;;;;;;4894262;28;44968;-60
2022/12/25 06:40:12;;;;;;;0.40;0.32;;;13.40;52.50;;;;;;4883586;28;45994;-59
2022/12/25 06:42:37;;;;;;;0.45;0.28;;;13.40;52.50;;;;;;4884150;28;45507;-58
2022/12/25 06:45:03;;;;;;;0.30;0.30;;;13.40;52.50;;;;;;4893609;28;45124;-54
2022/12/25 06:47:29;;;;;;;0.98;0.43;;;13.40;52.50;;;;;;4889148;28;45611;-55
2022/12/25 06:49:54;;;;;;;0.30;0.30;;;13.40;52.50;;;;;;4892554;28;46197;-57
2022/12/25 06:52:20;;;;;;;0.30;0.30;;;13.40;52.50;;;;;;4887491;28;45336;-59
2022/12/25 06:54:46;;;;;;;0.40;0.40;;;13.40;52.50;;;;;;4890017;28;45055;-63
2022/12/25 06:57:11;;;;;;;0.30;0.30;;;13.40;52.50;;;;;;4896156;28;45337;-57
2022/12/25 06:59:37;;;;;;;0.25;0.25;;;13.40;52.50;;;;;;4887517;28;46760;-59
2022/12/25 07:02:02;;;;;;;0.40;0.40;;;13.40;52.50;;;;;;4884406;28;46002;-58
2022/12/25 07:04:37;;;;;;;0.30;0.30;;;13.40;52.50;;;;;;4886412;28;45538;-59
2022/12/25 07:07:03;;;;;;;0.30;0.30;;;13.40;52.50;;;;;;4884561;28;45309;-62
2022/12/25 07:09:28;;;;;;;0.60;0.30;;;13.40;52.50;;;;;;4893312;28;46133;-66
2022/12/25 07:12:01;;;;;;;0.20;0.20;;;13.40;52.50;;;;;;4888593;28;45169;-62
2022/12/25 07:14:27;;;;;;;0.30;0.30;;;13.40;52.60;;;;;;4888815;28;45119;-60
2022/12/25 07:16:52;;;;;;;0.60;0.30;;;13.40;52.50;;;;;;4889844;28;45530;-58
2022/12/25 07:19:18;;;;;;;0.45;0.40;;;13.40;52.50;;;;;;4887641;28;45269;-58
2022/12/25 07:21:43;;;;;;;0.40;0.40;;;13.40;52.50;;;;;;4893933;28;45205;-56
2022/12/25 07:24:09;;;;;;;0.40;0.40;;;13.40;52.50;;;;;;4886801;28;45196;-60
2022/12/25 07:26:35;;;;;;;0.40;0.32;;;13.40;52.50;;;;;;4890529;28;45543;-53
2022/12/25 07:29:00;;;;;;;0.28;0.28;;;13.40;52.60;;;;;;4888127;28;46024;-59
2022/12/25 07:31:26;;;;;;;0.57;0.30;;;13.40;52.50;;;;;;4890423;28;45493;-54
2022/12/25 07:33:52;;;;;;;0.20;0.20;;;13.40;52.60;;;;;;4892867;28;45162;-63
2022/12/25 07:36:18;;;;;;;0.35;0.30;;;13.40;52.50;;;;;;4890826;28;44975;-57
2022/12/25 07:38:46;;;;;;;0.60;0.50;;;13.40;52.60;;;;;;4886675;28;46209;-65
2022/12/25 07:41:12;;;;;;;0.30;0.30;;;13.40;53.10;;;;;;4891424;28;44972;-58
2022/12/25 07:43:37;;;;;;;0.30;0.30;;;13.40;52.60;;;;;;4888582;28;45124;-57
2022/12/25 07:46:03;;;;;;;0.40;0.40;;;13.40;52.60;;;;;;4912288;28;45794;-58
2022/12/25 07:48:29;;;;;;;0.52;0.35;;;13.40;52.50;;;;;;4893978;28;46165;-55
2022/12/25 07:51:05;;;;;;;0.40;0.30;;;13.40;52.50;;;;;;4892515;28;45206;-63
2022/12/25 07:53:31;;;;;;;0.32;0.32;;;13.40;52.60;;;;;;4891094;28;45218;-53
2022/12/25 07:56:01;;;;;;;0.50;0.40;;;13.40;52.60;;;;;;4888524;28;45386;-61
2022/12/25 07:58:27;;;;;;;0.77;0.40;;;13.40;52.50;;;;;;4892021;28;45358;-61
2022/12/25 08:00:53;;;;;;;0.52;0.40;;;13.40;52.50;;;;;;4892099;28;45360;-60
2022/12/25 08:03:18;;;;;;;0.32;0.20;;;13.40;52.50;;;;;;4889900;28;45087;-62
2022/12/25 08:05:44;;;;;;;0.20;0.20;;;13.40;52.50;;;;;;4894523;28;45578;-59
2022/12/25 08:08:10;;;;;;;0.40;0.30;;;13.40;52.50;;;;;;4893877;28;45712;-58
2022/12/25 08:10:35;;;;;;;0.70;0.40;;;13.40;52.60;;;;;;4895850;28;45596;-62
2022/12/25 08:13:01;;;;;;;0.32;0.30;;;13.40;52.50;;;;;;4889914;28;45727;-56
2022/12/25 08:15:26;;;;;;;0.45;0.30;;;13.40;52.50;;;;;;4890001;28;45502;-63
2022/12/25 08:17:52;;;;;;;0.43;0.30;;;13.40;52.50;;;;;;4891583;28;46959;-56
2022/12/25 08:20:17;;;;;;;0.35;0.30;;;13.40;52.60;;;;;;4891365;28;44750;-65
2022/12/25 08:22:43;;;;;;;0.40;0.30;;;13.40;53.10;;;;;;4892776;28;45573;-55
2022/12/25 08:25:08;;;;;;;0.57;0.40;;;13.40;52.50;;;;;;4896540;28;45242;-60
2022/12/25 08:27:34;;;;;;;0.30;0.30;;;13.40;52.50;;;;;;4895096;28;46923;-56
2022/12/25 08:29:59;;;;;;;0.30;0.30;;;13.40;52.50;;;;;;4895607;28;45364;-60
2022/12/25 08:32:25;;;;;;;0.25;0.20;;;13.40;52.50;;;;;;4895344;28;45297;-55
2022/12/25 08:34:50;;;;;;;0.40;0.40;;;13.40;52.60;;;;;;4894447;28;44878;-60
2022/12/25 08:37:16;;;;;;;0.20;0.20;;;13.40;52.50;;;;;;4898280;28;46947;-62
2022/12/25 08:39:41;;;;;;;0.57;0.20;;;13.40;52.50;;;;;;4892468;28;45330;-58
2022/12/25 08:42:07;;;;;;;0.45;0.30;;;13.40;52.50;;;;;;4893257;28;45478;-55
2022/12/25 08:44:32;;;;;;;0.40;0.40;;;13.40;52.50;;;;;;4896734;28;45040;-60
2022/12/25 08:46:58;;;;;;;0.63;0.50;;;13.40;52.50;;;;;;4895685;28;45998;-56
2022/12/25 08:49:26;;;;;;;0.70;0.30;;;13.40;52.50;;;;;;4893267;28;45370;-63
2022/12/25 08:51:51;;;;;;;0.55;0.50;;;13.40;52.50;;;;;;4890330;28;45430;-59
2022/12/25 08:54:17;;;;;;;0.40;0.40;;;13.40;52.50;;;;;;4887995;28;45166;-57
2022/12/25 08:56:43;;;;;;;0.30;0.30;;;13.40;52.50;;;;;;4898688;28;45627;-55
2022/12/25 08:59:10;;;;;;;0.40;0.40;;;13.40;52.50;;;;;;4897023;28;44700;-59
2022/12/25 09:01:36;;;;;;;0.30;0.30;;;13.40;52.50;;;;;;4891732;28;44714;-59
2022/12/25 09:04:01;;;;;;;0.45;0.45;;;13.40;52.50;;;;;;4893817;28;45396;-63
2022/12/25 09:06:27;;;;;;;0.93;0.45;;;13.40;52.50;;;;;;4891989;28;45169;-53
2022/12/25 09:08:53;;;;;;;0.40;0.38;;;13.50;52.50;;;;;;4896369;28;45328;-57
2022/12/25 09:11:18;;;;;;;0.45;0.32;;;13.40;52.50;;;;;;4889969;28;45392;-65
2022/12/25 09:13:44;;;;;;;0.30;0.30;;;13.40;52.50;;;;;;4894975;28;44727;-54
2022/12/25 09:16:12;;;;;;;0.40;0.40;;;13.40;52.50;;;;;;4895676;28;46752;-66
2022/12/25 09:18:37;;;;;;;0.30;0.30;;;13.40;52.50;;;;;;4896574;28;45232;-60
2022/12/25 09:21:05;;;;;;;0.50;0.40;;;13.40;52.50;;;;;;4897922;28;45319;-57
2022/12/25 09:23:31;;;;;;;0.30;0.30;;;13.40;52.50;;;;;;4893687;28;45245;-57
2022/12/25 09:26:00;;;;;;;0.47;0.47;;;13.50;52.50;;;;;;4888206;28;46131;-63
2022/12/25 09:28:26;;;;;;;0.70;0.40;;;13.50;52.50;;;;;;4889063;28;45388;-55
2022/12/25 09:30:52;;;;;;;0.47;0.40;;;13.40;52.50;;;;;;4890441;28;45258;-63
2022/12/25 09:33:18;;;;;;;0.65;0.30;;;13.50;52.50;;;;;;4888857;28;45314;-61
2022/12/25 09:35:51;;;;;;;0.50;0.40;;;13.50;52.40;;;;;;4889387;28;45041;-54
2022/12/25 09:38:16;;;;;;;0.52;0.40;;;13.50;52.40;;;;;;4897884;28;45262;-58
2022/12/25 09:40:42;;;;;;;0.38;0.38;;;13.50;52.40;;;;;;4895558;28;45507;-56
2022/12/25 09:43:09;;;;;;;0.40;0.40;;;13.50;52.40;;;;;;4896346;28;45271;-63
2022/12/25 09:45:36;;;;;;;0.30;0.30;;;13.50;52.40;;;;;;4892142;28;45155;-61
2022/12/25 09:48:01;;;;;;;0.25;0.25;;;13.50;52.40;;;;;;4891411;28;45201;-61
2022/12/25 09:50:46;;;;;;;0.20;0.20;;;13.50;52.40;;;;;;4898633;28;45489;-54
2022/12/25 09:53:21;;;;;;;0.40;0.30;;;13.50;52.40;;;;;;4898715;28;45675;-53
2022/12/25 09:56:05;;;;;;;0.60;0.40;;;13.50;52.40;;;;;;4908999;28;47014;-59
2022/12/25 09:58:32;;;;;;;0.35;0.30;;;13.50;52.40;;;;;;4895016;28;45689;-53
2022/12/25 10:01:06;;;;;;;0.40;0.30;;;13.50;52.30;;;;;;4892819;28;46319;-58
2022/12/25 10:03:53;;;;;;;0.68;0.30;;;13.50;52.30;;;;;;4893663;28;45657;-54
2022/12/25 10:06:44;;;;;;;0.43;0.30;;;13.50;52.40;;;;;;4895977;28;46226;-53
2022/12/25 10:09:28;;;;;;;0.30;0.30;;;13.50;52.90;;;;;;4882165;29;45528;-58
2022/12/25 10:12:03;;;;;;;0.47;0.43;;;13.50;52.30;;;;;;4885390;28;45577;-54
2022/12/25 10:14:34;;;;;;;0.20;0.20;;;13.50;52.30;;;;;;4893313;28;45583;-63
2022/12/25 10:17:14;;;;;;;0.75;0.50;;;13.50;52.20;;;;;;4885632;28;45442;-62
2022/12/25 10:19:52;;;;;;;0.57;0.40;;;13.60;52.30;;;;;;4875269;28;45188;-54
2022/12/25 10:22:35;;;;;;;0.63;0.30;;;13.60;52.30;;;;;;4890154;28;44730;-61
2022/12/25 10:25:01;;;;;;;0.30;0.30;;;13.60;52.20;;;;;;4895383;28;45754;-60
2022/12/25 10:27:37;;;;;;;0.60;0.40;;;13.60;52.20;;;;;;4893770;28;45375;-64
2022/12/25 10:30:15;;;;;;;0.47;0.40;;;13.60;52.20;;;;;;4896091;28;45264;-56
2022/12/25 10:32:41;;;;;;;0.35;0.35;;;13.60;52.20;;;;;;4896894;28;44949;-55
2022/12/25 10:35:10;;;;;;;0.40;0.40;;;13.60;52.20;;;;;;4892182;28;45909;-63
2022/12/25 10:37:36;;;;;;;0.35;0.30;;;13.60;52.20;;;;;;4892514;28;46365;-55
2022/12/25 10:40:02;;;;;;;0.38;0.30;;;13.60;52.10;;;;;;4904732;28;45307;-60
2022/12/25 10:42:38;;;;;;;0.60;0.45;;;13.60;52.10;;;;;;4893441;28;45219;-63
2022/12/25 10:45:05;;;;;;;0.40;0.40;;;13.60;52.10;;;;;;4911524;28;44890;-55
2022/12/25 10:47:33;;;;;;;0.40;0.35;;;13.60;52.10;;;;;;4892420;28;47021;-53
2022/12/25 10:49:59;;;;;;;0.40;0.35;;;13.60;52.70;;;;;;4892444;28;45209;-63
2022/12/25 10:52:26;;;;;;;0.43;0.43;;;13.60;52.10;;;;;;4893663;28;45213;-60
2022/12/25 10:54:51;;;;;;;0.20;0.20;;;13.60;52.10;;;;;;4897771;28;45611;-62
2022/12/25 10:57:19;;;;;;;0.57;0.50;;;13.60;52.10;;;;;;4888462;28;45391;-61
2022/12/25 10:59:49;;;;;;;0.30;0.30;;;13.70;52.10;;;;;;4892571;28;45240;-62
2022/12/25 11:02:28;;;;;;;0.45;0.30;;;13.70;52.10;;;;;;4894210;28;44765;-64
2022/12/25 11:05:07;;;;;;;0.68;0.40;;;13.70;52.10;;;;;;4893309;28;45381;-57
2022/12/25 11:07:50;;;;;;;0.30;0.30;;;13.70;52.10;;;;;;4891809;28;45564;-61
2022/12/25 11:10:30;;;;;;;0.30;0.30;;;13.70;52.10;;;;;;4888824;28;45103;-61
2022/12/25 11:12:56;;;;;;;0.50;0.40;;;13.70;52.10;;;;;;4895586;28;45330;-57
2022/12/25 11:15:41;;;;;;;0.43;0.30;;;13.70;52.10;;;;;;4890267;28;45197;-60
2022/12/25 11:18:18;;;;;;;0.52;0.50;;;13.70;52.10;;;;;;4887919;28;46067;-53
2022/12/25 11:20:52;;;;;;;0.40;0.40;;;13.70;52.10;;;;;;4897991;28;45510;-61
2022/12/25 11:23:19;;;;;;;0.30;0.30;;;13.70;52.10;;;;;;4891666;28;45599;-58
2022/12/25 11:25:53;;;;;;;0.40;0.30;;;13.70;52.10;;;;;;4897973;28;46142;-58
2022/12/25 11:28:18;;;;;;;0.60;0.50;;;13.70;52.10;;;;;;4910580;28;45813;-62
2022/12/25 11:30:44;;;;;;;0.63;0.40;;;13.70;52.10;;;;;;4896174;28;44686;-59
2022/12/25 11:33:10;;;;;;;0.50;0.40;;;13.70;52.10;;;;;;4897979;28;46319;-55
2022/12/25 11:35:44;;;;;;;0.47;0.40;;;13.70;52.10;;;;;;4884978;28;45240;-57
2022/12/25 11:38:10;;;;;;;0.30;0.30;;;13.70;52.10;;;;;;4895651;28;46043;-59
2022/12/25 11:40:50;;;;;;;0.30;0.30;;;13.70;52.00;;;;;;4897395;28;45260;-58
2022/12/25 11:43:22;;;;;;;0.40;0.40;;;13.70;52.10;;;;;;4900529;28;45568;-64
2022/12/25 11:45:53;;;;;;;0.45;0.40;;;13.70;52.00;;;;;;4890898;28;45628;-54
2022/12/25 11:48:23;;;;;;;0.52;0.40;;;13.70;52.00;;;;;;4898981;28;46211;-61
2022/12/25 11:50:52;;;;;;;0.30;0.30;;;13.70;52.00;;;;;;4893221;28;45225;-57
2022/12/25 11:53:27;;;;;;;0.20;0.20;;;13.70;52.00;;;;;;4891315;28;45556;-67
2022/12/25 11:55:56;;;;;;;0.68;0.50;;;13.80;52.10;;;;;;4899510;28;45834;-61
2022/12/25 11:58:39;;;;;;;0.30;0.30;;;13.80;52.10;;;;;;4880114;29;46086;-57
2022/12/25 12:01:14;;;;;;;0.38;0.30;;;13.80;52.10;;;;;;4891668;28;45239;-53
2022/12/25 12:03:40;;;;;;;0.50;0.40;;;13.80;52.00;;;;;;4877437;28;44663;-66
2022/12/25 12:06:27;;;;;;;0.40;0.40;;;13.80;52.00;;;;;;4907239;28;45847;-56
2022/12/25 12:08:56;;;;;;;0.45;0.43;;;13.80;52.10;;;;;;4896328;28;45855;-60
2022/12/25 12:11:27;;;;;;;0.60;0.30;;;13.80;52.10;;;;;;4880538;29;45300;-57
2022/12/25 12:14:30;;;;;;;0.63;0.38;;;13.70;52.10;;;;;;4899342;28;45196;-54
2022/12/25 12:16:56;;;;;;;0.38;0.30;;;13.80;52.10;;;;;;4893449;28;45741;-63
2022/12/25 12:19:24;;;;;;;0.22;0.22;;;13.80;52.00;;;;;;4895908;28;45193;-59
2022/12/25 12:21:50;;;;;;;0.30;0.30;;;13.80;52.10;;;;;;4895046;28;45281;-55
2022/12/25 12:24:17;;;;;;;0.30;0.30;;;13.80;52.00;;;;;;4897594;28;45681;-60
2022/12/25 12:26:43;;;;;;;0.75;0.40;;;13.80;52.00;;;;;;4895438;28;45420;-63
2022/12/25 12:29:42;;;;;;;0.20;0.20;;;13.80;52.00;;;;;;4904903;28;46360;-60
2022/12/25 12:32:24;;;;;;;0.55;0.40;;;13.80;52.00;;;;;;4886320;28;45148;-60
2022/12/25 12:34:49;;;;;;;0.57;0.40;;;13.80;52.00;;;;;;4892575;28;45257;-55
2022/12/25 12:37:17;;;;;;;0.38;0.30;;;13.80;52.00;;;;;;4887346;28;45427;-62
2022/12/25 12:39:43;;;;;;;0.30;0.30;;;13.80;52.00;;;;;;4899807;28;46645;-57
2022/12/25 12:42:13;;;;;;;0.30;0.20;;;13.80;52.00;;;;;;4890888;28;45510;-61
2022/12/25 12:44:38;;;;;;;0.50;0.40;;;13.80;52.00;;;;;;4896242;28;45407;-57
2022/12/25 12:47:04;;;;;;;0.30;0.30;;;13.80;52.00;;;;;;4905875;28;45215;-56
2022/12/25 12:49:31;;;;;;;0.30;0.30;;;13.80;52.00;;;;;;4897074;28;45908;-62
2022/12/25 12:52:12;;;;;;;0.40;0.30;;;13.90;51.90;;;;;;4890307;28;45517;-58
2022/12/25 12:55:04;;;;;;;0.52;0.50;;;13.90;52.00;;;;;;4898609;28;44639;-60
2022/12/25 12:57:33;;;;;;;0.50;0.30;;;13.80;52.00;;;;;;4884643;28;45503;-58
2022/12/25 13:00:00;;;;;;;0.60;0.38;;;13.80;52.00;;;;;;4889172;28;46932;-64
2022/12/25 13:02:53;;;;;;;0.20;0.20;;;13.80;52.00;;;;;;4896009;28;45408;-60
2022/12/25 13:05:38;;;;;;;0.30;0.30;;;13.90;52.00;;;;;;4881089;29;44709;-60
2022/12/25 13:08:13;;;;;;;0.40;0.40;;;13.80;52.00;;;;;;4899274;28;45927;-54
2022/12/25 13:10:43;;;;;;;0.20;0.20;;;13.80;52.00;;;;;;4893403;28;46054;-60
2022/12/25 13:13:20;;;;;;;0.30;0.30;;;13.80;52.10;;;;;;4878666;29;45273;-64
2022/12/25 13:15:46;;;;;;;0.50;0.25;;;13.80;52.10;;;;;;4880753;28;45165;-56
2022/12/25 13:18:12;;;;;;;0.35;0.30;;;13.80;52.10;;;;;;4883231;29;45306;-56
2022/12/25 13:20:53;;;;;;;0.20;0.20;;;13.80;52.00;;;;;;4895482;28;46132;-54
2022/12/25 13:23:22;;;;;;;0.30;0.30;;;13.80;52.10;;;;;;4891849;28;45486;-59
2022/12/25 13:25:52;;;;;;;0.25;0.20;;;13.80;52.00;;;;;;4897590;28;45287;-58
2022/12/25 13:28:23;;;;;;;0.47;0.40;;;13.80;52.00;;;;;;4876934;29;44699;-58
2022/12/25 13:30:49;;;;;;;0.40;0.35;;;13.80;52.00;;;;;;4895541;28;46041;-55
2022/12/25 13:33:16;;;;;;;0.40;0.40;;;13.90;52.00;;;;;;4881149;29;45101;-62
2022/12/25 13:35:42;;;;;;;0.40;0.40;;;13.90;52.00;;;;;;4886471;28;45419;-54
2022/12/25 13:38:13;;;;;;;0.35;0.30;;;13.90;52.00;;;;;;4891664;28;45433;-57
2022/12/25 13:42:04;;;;;;;0.30;0.30;;;13.90;52.00;;;;;;4864750;28;46082;-56
2022/12/25 13:43:24;;;;;;;0.40;0.22;;;13.90;52.00;;;;;;4892825;28;45329;-54
2022/12/25 13:45:53;;;;;;;0.45;0.30;;;13.90;52.00;;;;;;4905915;28;44780;-63
2022/12/25 13:48:19;;;;;;;0.43;0.22;;;13.80;52.00;;;;;;4896836;28;45654;-57
2022/12/25 13:50:54;;;;;;;0.30;0.30;;;13.90;52.10;;;;;;4908880;28;46010;-56
2022/12/25 13:53:19;;;;;;;0.68;0.30;;;13.80;52.10;;;;;;4910273;28;45284;-58
2022/12/25 13:55:51;;;;;;;0.28;0.28;;;13.90;52.20;;;;;;4896279;28;45455;-58
2022/12/25 13:58:23;;;;;;;0.50;0.45;;;13.80;52.10;;;;;;4892196;28;45290;-63
2022/12/25 14:00:51;;;;;;;0.43;0.30;;;13.80;52.20;;;;;;4890304;28;45547;-55
2022/12/25 14:03:22;;;;;;;0.28;0.22;;;13.80;52.20;;;;;;4897359;28;45497;-60
2022/12/25 14:06:02;;;;;;;0.30;0.30;;;13.80;52.20;;;;;;4894524;28;44662;-55
2022/12/25 14:08:30;;;;;;;0.40;0.35;;;13.80;52.20;;;;;;4893063;28;45686;-59
2022/12/25 14:10:56;;;;;;;0.43;0.30;;;13.80;52.20;;;;;;4888880;28;46206;-61
2022/12/25 14:13:24;;;;;;;0.20;0.20;;;13.80;52.20;;;;;;4890447;28;46491;-60
2022/12/25 14:15:50;;;;;;;0.47;0.38;;;13.80;52.20;;;;;;4891526;28;45125;-58
2022/12/25 14:18:16;;;;;;;0.35;0.30;;;13.80;52.20;;;;;;4884732;28;45379;-63
2022/12/25 14:20:55;;;;;;;0.52;0.30;;;13.80;52.30;;;;;;4893877;28;45917;-57
2022/12/25 14:23:21;;;;;;;0.30;0.30;;;13.80;52.30;;;;;;4897807;28;45403;-63
2022/12/25 14:25:46;;;;;;;0.50;0.25;;;13.80;52.30;;;;;;4908278;28;45492;-59
2022/12/25 14:28:19;;;;;;;0.57;0.50;;;13.80;52.20;;;;;;4898518;28;44754;-60
2022/12/25 14:30:45;;;;;;;0.40;0.40;;;13.80;52.30;;;;;;4897558;28;45863;-56
2022/12/25 14:33:13;;;;;;;0.40;0.40;;;13.80;52.30;;;;;;4899566;28;45395;-61
2022/12/25 14:35:39;;;;;;;0.20;0.20;;;13.80;52.20;;;;;;4902475;28;44910;-53
2022/12/25 14:38:04;;;;;;;0.30;0.30;;;13.80;52.20;;;;;;4893943;28;44666;-64
2022/12/25 14:40:30;;;;;;;0.30;0.30;;;13.80;52.20;;;;;;4886970;28;46064;-67
2022/12/25 14:43:01;;;;;;;0.28;0.28;;;13.80;52.90;;;;;;4906861;28;45504;-56
2022/12/25 14:45:40;;;;;;;0.82;0.50;;;13.80;52.30;;;;;;4891016;28;45569;-61
2022/12/25 14:48:22;;;;;;;0.43;0.40;;;13.80;52.30;;;;;;4887180;28;45614;-69
2022/12/25 14:51:16;;;;;;;0.22;0.22;;;13.90;52.40;;;;;;4894862;28;45920;-58
2022/12/25 14:53:55;;;;;;;0.40;0.40;;;13.80;52.30;;;;;;4902104;28;44767;-61
2022/12/25 14:56:21;;;;;;;0.30;0.30;;;13.80;52.30;;;;;;4865322;29;45541;-58
2022/12/25 14:58:49;;;;;;;0.20;0.20;;;13.80;52.40;;;;;;4895579;28;44798;-62
2022/12/25 15:01:30;;;;;;;0.52;0.40;;;13.80;52.30;;;;;;4890077;28;46185;-61
2022/12/25 15:04:03;;;;;;;1.02;0.32;;;13.80;52.30;;;;;;4892397;28;45673;-53
2022/12/25 15:06:29;;;;;;;0.25;0.20;;;13.80;52.40;;;;;;4893269;28;45701;-53
2022/12/25 15:09:02;;;;;;;0.30;0.30;;;13.80;52.40;;;;;;4891214;28;45129;-59
2022/12/25 15:11:28;;;;;;;0.40;0.40;;;13.80;52.40;;;;;;4892054;28;46023;-57
2022/12/25 15:13:53;;;;;;;1.40;0.32;;;13.80;52.40;;;;;;4890869;28;46119;-60
2022/12/25 15:16:29;;;;;;;0.47;0.35;;;13.80;52.30;;;;;;4885612;28;45164;-56
2022/12/25 15:18:55;;;;;;;0.30;0.30;;;13.80;52.40;;;;;;4880307;28;46827;-55
2022/12/25 15:21:25;;;;;;;0.30;0.30;;;13.80;52.30;;;;;;4890177;28;45946;-56
2022/12/25 15:23:55;;;;;;;0.50;0.40;;;13.80;52.40;;;;;;4886156;28;47082;-61
2022/12/25 15:26:20;;;;;;;0.50;0.28;;;13.80;52.30;;;;;;4890679;28;45378;-62
2022/12/25 15:28:46;;;;;;;0.30;0.30;;;13.80;52.40;;;;;;4888351;28;44765;-56
2022/12/25 15:31:29;;;;;;;0.20;0.20;;;13.80;52.30;;;;;;4895686;28;48096;-56
2022/12/25 15:33:56;;;;;;;0.40;0.40;;;13.80;52.40;;;;;;4887750;28;45019;-55
2022/12/25 15:36:22;;;;;;;0.30;0.28;;;13.80;52.40;;;;;;4887045;28;45511;-53
2022/12/25 15:38:47;;;;;;;0.73;0.30;;;13.80;52.30;;;;;;4886289;28;45776;-56
2022/12/25 15:42:09;;;;;;;0.22;0.22;;;13.80;52.40;;;;;;4888555;28;46586;-58
2022/12/25 15:44:00;;;;;;;0.45;0.45;;;13.80;52.40;;;;;;4902258;28;45688;-52
2022/12/25 15:46:26;;;;;;;0.30;0.30;;;13.80;52.40;;;;;;4892113;28;45542;-58
2022/12/25 15:48:52;;;;;;;0.82;0.40;;;13.80;52.40;;;;;;4888498;28;45443;-57
2022/12/25 15:51:17;;;;;;;2.22;0.30;;;13.80;52.30;;;;;;4890991;28;45504;-67
2022/12/25 15:53:43;;;;;;;0.25;0.25;;;13.80;52.40;;;;;;4888865;28;44590;-64
2022/12/25 15:56:09;;;;;;;0.20;0.20;;;13.80;52.30;;;;;;4891538;28;45330;-59
2022/12/25 15:58:35;;;;;;;0.32;0.22;;;13.80;52.40;;;;;;4894085;28;44793;-54
2022/12/25 16:01:00;;;;;;;0.30;0.30;;;13.80;52.40;;;;;;4888066;28;45134;-61
2022/12/25 16:03:26;;;;;;;0.30;0.30;;;13.80;52.40;;;;;;4893830;28;45240;-56
2022/12/25 16:05:51;;;;;;;0.40;0.40;;;13.80;52.40;;;;;;4886951;28;45537;-55
2022/12/25 16:08:17;;;;;;;0.30;0.30;;;13.80;52.40;;;;;;4891118;28;45060;-60
2022/12/25 16:10:43;;;;;;;0.20;0.20;;;13.80;52.40;;;;;;4890637;28;45973;-54
2022/12/25 16:13:09;;;;;;;0.50;0.30;;;13.80;52.40;;;;;;4894124;28;45684;-61
2022/12/25 16:15:34;;;;;;;0.30;0.30;;;13.80;52.40;;;;;;4885423;28;45032;-61
2022/12/25 16:18:00;;;;;;;0.30;0.30;;;13.80;52.40;;;;;;4892310;28;46461;-61
2022/12/25 16:20:25;;;;;;;0.30;0.30;;;13.80;52.40;;;;;;4888324;28;46977;-67
2022/12/25 16:22:51;;;;;;;0.28;0.25;;;13.80;52.40;;;;;;4890188;28;45585;-63
2022/12/25 16:25:17;;;;;;;0.52;0.30;;;13.80;52.40;;;;;;4884433;28;45893;-61
2022/12/25 16:27:42;;;;;;;0.22;0.22;;;13.80;52.40;;;;;;4890313;28;45386;-58
2022/12/25 16:30:09;;;;;;;0.30;0.30;;;13.90;52.30;;;;;;4888319;28;46151;-56
2022/12/25 16:32:35;;;;;;;0.40;0.40;;;13.80;52.40;;;;;;4892226;28;45916;-57
2022/12/25 16:35:00;;;;;;;0.35;0.35;;;13.80;52.90;;;;;;4890276;28;44935;-61
2022/12/25 16:37:26;;;;;;;0.30;0.30;;;13.80;52.30;;;;;;4889533;28;46615;-58
2022/12/25 16:39:52;;;;;;;0.40;0.30;;;13.80;52.40;;;;;;4892524;28;46103;-58
2022/12/25 16:42:17;;;;;;;0.20;0.20;;;13.80;52.40;;;;;;4893633;28;44946;-62
2022/12/25 16:44:43;;;;;;;0.30;0.30;;;13.80;52.40;;;;;;4893132;28;45409;-61
2022/12/25 16:47:09;;;;;;;0.43;0.30;;;13.80;52.40;;;;;;4890094;28;45270;-57
2022/12/25 16:49:34;;;;;;;0.30;0.30;;;13.80;52.30;;;;;;4893059;28;45336;-60
2022/12/25 16:52:00;;;;;;;0.30;0.30;;;13.90;52.40;;;;;;4888287;28;45460;-54
2022/12/25 16:54:25;;;;;;;0.38;0.38;;;13.80;52.30;;;;;;4890879;28;45144;-62
2022/12/25 16:56:51;;;;;;;0.40;0.35;;;13.90;52.40;;;;;;4889968;28;45270;-59
2022/12/25 16:59:16;;;;;;;0.43;0.35;;;13.90;52.40;;;;;;4894830;28;46146;-62
2022/12/25 17:01:42;;;;;;;0.30;0.30;;;13.80;52.40;;;;;;4889060;28;45280;-73
2022/12/25 17:04:08;;;;;;;0.45;0.35;;;13.80;52.40;;;;;;4894205;28;45325;-60
2022/12/25 17:06:34;;;;;;;0.40;0.40;;;13.80;52.40;;;;;;4896528;28;44922;-56
2022/12/25 17:09:01;;;;;;;0.40;0.40;;;13.80;52.40;;;;;;4893519;28;47090;-61
2022/12/25 17:11:28;;;;;;;0.40;0.30;;;13.80;52.40;;;;;;4896179;28;44965;-61
2022/12/25 17:13:54;;;;;;;0.82;0.28;;;13.80;52.40;;;;;;4890870;28;45574;-56
2022/12/25 17:16:25;;;;;;;0.43;0.30;;;13.80;52.40;;;;;;4890290;28;46293;-55
2022/12/25 17:18:54;;;;;;;0.40;0.30;;;13.80;52.40;;;;;;4886351;28;45994;-55
2022/12/25 17:21:20;;;;;;;0.28;0.28;;;13.80;52.40;;;;;;4892393;28;45245;-59
2022/12/25 17:23:45;;;;;;;0.30;0.30;;;13.80;52.40;;;;;;4891426;28;44734;-59
2022/12/25 17:26:11;;;;;;;0.32;0.30;;;13.80;52.40;;;;;;4893600;28;45646;-55
2022/12/25 17:28:37;;;;;;;0.40;0.22;;;13.80;52.40;;;;;;4889231;28;46850;-61
2022/12/25 17:31:04;;;;;;;0.50;0.50;;;13.80;52.40;;;;;;4887826;28;45537;-60